Terminal Aerodrome Forecast
Issued by NWS

Home | Current Version | Previous Version | Text Only | Print | Product List | Glossary Off
Versions: 1 2 3 4 5 6 7 8 9 10 11 12 13 14 15 16 17 18

706
FTUS43 KBIS 271126
TAFDIK
TAF
KDIK 271126Z 2712/2812 26009KT P6SM FEW070 SCT250
     FM271800 29018G26KT P6SM SCT060 BKN100
     FM280000 32017G25KT P6SM FEW080 SCT150
     FM280200 32010KT P6SM FEW070 SCT200
     FM280600 28007KT P6SM SKC=

USA.gov is the U.S. government's official web portal to all federal, state and local government web resources and services.